14°C Temp
10°C Dewpoint
77% Humidity
Temperature
23 KM/H
14 MPH
12 KTS
180°
Due South

Wind Speed
Clear
Conditions
Pressure 1004.92 (hPa) - 29.68 (in)
Visibility 6.2 (mi) - 10.0 (km)

Current Conditions
EKCH
Location 55(km)
Metar :EKCH 070750Z AUTO 18012KT 9999 NCD 14/10 Q1005 NOSIG
Sun 7th June 09:50 am

Airport
  Metar Aviation API Data Provided by https://www.checkwx.com/ PHP scripts by weather34.com ©2020